createdAt,value
2022-11-22T00:02:38.342Z,1.32
2022-11-22T00:08:15.132Z,0.15
2022-11-22T00:13:48.115Z,0.30
2022-11-22T00:16:39.341Z,1.25
2022-11-22T00:19:31.169Z,1.02
2022-11-22T00:22:22.991Z,1.10
2022-11-22T00:25:15.500Z,1.05
2022-11-22T00:28:07.243Z,1.22
2022-11-22T00:33:38.400Z,4.53
2022-11-22T00:36:29.819Z,1.60
2022-11-22T00:39:21.181Z,3.20
2022-11-22T00:44:53.708Z,0.13
2022-11-22T00:47:45.765Z,0.50
2022-11-22T00:53:21.103Z,0.78
2022-11-22T00:56:12.269Z,0.68
2022-11-22T00:59:06.988Z,0.80
2022-11-22T01:01:59.965Z,0.70
2022-11-22T01:07:31.135Z,0.30
2022-11-22T01:10:22.714Z,0.60
2022-11-22T01:13:17.171Z,1.52
2022-11-22T01:16:11.444Z,1.70
2022-11-22T01:19:02.833Z,2.05
2022-11-22T01:21:54.311Z,1.40
2022-11-22T01:24:45.783Z,1.25
2022-11-22T01:27:37.311Z,1.27
2022-11-22T01:33:12.836Z,1.98
2022-11-22T01:36:04.029Z,1.57
2022-11-22T01:38:55.248Z,1.00
2022-11-22T01:41:46.730Z,2.17
2022-11-22T01:44:37.941Z,1.25
2022-11-22T01:47:29.192Z,1.85
2022-11-22T01:53:03.753Z,2.08
2022-11-22T01:55:56.347Z,2.45
2022-11-22T01:58:50.797Z,3.20
2022-11-22T02:01:42.348Z,1.80
2022-11-22T02:04:35.251Z,2.55
2022-11-22T02:07:29.872Z,2.27
2022-11-22T02:10:23.505Z,2.47
2022-11-22T02:13:17.566Z,1.70
2022-11-22T02:16:10.961Z,1.77
2022-11-22T02:19:02.349Z,3.22
2022-11-22T02:21:57.872Z,1.65
2022-11-22T02:27:38.394Z,2.45
2022-11-22T02:33:10.081Z,2.62
2022-11-22T02:38:40.003Z,2.92
2022-11-22T02:41:30.965Z,3.58
2022-11-22T02:44:23.393Z,2.95
2022-11-22T02:47:15.174Z,2.70
2022-11-22T02:52:46.310Z,3.50
2022-11-22T02:55:37.452Z,2.98
2022-11-22T02:58:28.472Z,2.92
2022-11-22T03:04:01.467Z,3.70
2022-11-22T03:06:53.411Z,2.35
2022-11-22T03:09:44.978Z,1.87
2022-11-22T03:12:39.360Z,1.45
2022-11-22T03:15:30.951Z,1.32
2022-11-22T03:18:22.119Z,1.85
2022-11-22T03:23:53.246Z,1.82
2022-11-22T03:26:48.926Z,1.30
2022-11-22T03:29:40.975Z,1.17
2022-11-22T03:32:32.600Z,1.52
2022-11-22T03:38:07.371Z,1.52
2022-11-22T03:40:59.357Z,1.47
2022-11-22T03:43:50.739Z,1.72
2022-11-22T03:46:41.897Z,3.75
2022-11-22T03:49:33.447Z,2.70
2022-11-22T03:52:25.023Z,2.58
2022-11-22T03:55:16.562Z,1.87
2022-11-22T03:58:08.433Z,1.75
2022-11-22T04:01:00.046Z,3.50
2022-11-22T04:06:38.558Z,1.67
2022-11-22T04:09:32.003Z,2.00
2022-11-22T04:12:23.995Z,0.82
2022-11-22T04:15:19.224Z,1.85
2022-11-22T04:18:12.606Z,2.12
2022-11-22T04:23:44.223Z,2.15
2022-11-22T04:26:35.518Z,2.98
2022-11-22T04:29:27.311Z,3.15
2022-11-22T04:32:36.789Z,2.20
2022-11-22T04:38:06.760Z,2.50
2022-11-22T04:43:54.748Z,2.10
2022-11-22T04:46:45.741Z,2.37
2022-11-22T04:49:36.945Z,1.45
2022-11-22T04:52:46.217Z,5.97
2022-11-22T04:55:37.955Z,1.98
2022-11-22T04:58:29.169Z,1.37
2022-11-22T05:01:20.775Z,4.67
2022-11-22T05:04:12.378Z,2.15
2022-11-22T05:07:04.306Z,2.55
2022-11-22T05:12:46.812Z,4.42
2022-11-22T05:15:38.070Z,2.72
2022-11-22T05:18:31.356Z,3.65
2022-11-22T05:24:10.908Z,2.35
2022-11-22T05:27:02.644Z,5.42
2022-11-22T05:32:33.602Z,3.27
2022-11-22T05:38:16.407Z,2.92
2022-11-22T05:43:46.279Z,2.98
2022-11-22T05:46:37.816Z,1.92
2022-11-22T05:49:29.470Z,1.87
2022-11-22T05:52:21.318Z,1.50
2022-11-22T05:57:53.477Z,3.35
2022-11-22T06:00:46.779Z,2.85
2022-11-22T06:03:38.243Z,5.87
2022-11-22T06:06:32.577Z,3.42
2022-11-22T06:09:24.166Z,1.47
2022-11-22T06:14:54.275Z,2.67
2022-11-22T06:20:24.331Z,3.67
2022-11-22T06:23:15.749Z,3.12
2022-11-22T06:26:09.337Z,5.08
2022-11-22T06:29:00.756Z,2.70
2022-11-22T06:31:52.694Z,4.28
2022-11-22T06:34:46.177Z,2.87
2022-11-22T06:37:37.578Z,2.33
2022-11-22T06:40:29.100Z,4.55
2022-11-22T06:46:14.781Z,5.62
2022-11-22T06:51:46.892Z,3.80
2022-11-22T06:54:38.247Z,3.35
2022-11-22T06:57:32.580Z,3.92
2022-11-22T07:00:24.274Z,4.90
2022-11-22T07:03:16.066Z,5.62
2022-11-22T07:06:09.362Z,5.37
2022-11-22T07:09:01.834Z,5.22
2022-11-22T07:11:53.054Z,5.55
2022-11-22T07:17:25.539Z,2.40
2022-11-22T07:22:55.313Z,5.03
2022-11-22T07:25:47.983Z,3.80
2022-11-22T07:28:39.995Z,3.05
2022-11-22T07:31:31.628Z,3.58
2022-11-22T07:34:23.310Z,3.85
2022-11-22T07:37:15.039Z,6.25
2022-11-22T07:40:09.218Z,5.25
2022-11-22T07:43:00.643Z,3.92
2022-11-22T07:45:52.362Z,3.77
2022-11-22T07:48:44.282Z,3.25
2022-11-22T07:51:35.819Z,5.90
2022-11-22T07:54:27.538Z,3.52
2022-11-22T07:57:19.083Z,3.35
2022-11-22T08:03:07.833Z,3.47
2022-11-22T08:06:02.955Z,5.30
2022-11-22T08:09:01.546Z,4.42
2022-11-22T08:11:47.958Z,3.27
2022-11-22T08:14:40.036Z,4.08
2022-11-22T08:17:31.572Z,4.72
2022-11-22T08:23:04.452Z,4.20
2022-11-22T08:28:36.406Z,6.25
2022-11-22T08:31:29.117Z,4.25
2022-11-22T08:37:10.518Z,5.33
2022-11-22T08:40:02.325Z,5.58
2022-11-22T08:42:57.023Z,2.65
2022-11-22T08:45:49.293Z,4.78
2022-11-22T08:48:41.421Z,4.37
2022-11-22T08:51:34.968Z,4.28
2022-11-22T08:54:26.289Z,4.95
2022-11-22T08:57:18.139Z,5.45
2022-11-22T09:02:49.920Z,3.90
2022-11-22T09:08:24.617Z,5.53
2022-11-22T09:11:17.861Z,4.85
2022-11-22T09:14:09.267Z,5.05
2022-11-22T09:17:00.889Z,8.53
2022-11-22T09:19:52.741Z,4.42
2022-11-22T09:22:44.031Z,6.78
2022-11-22T09:28:27.392Z,4.40
2022-11-22T09:31:20.861Z,5.10
2022-11-22T09:34:13.165Z,5.58
2022-11-22T09:39:52.888Z,5.17
2022-11-22T09:42:57.869Z,6.15
2022-11-22T09:46:17.991Z,7.30
2022-11-22T09:52:23.909Z,3.15
2022-11-22T09:58:04.345Z,2.45
2022-11-22T10:03:56.009Z,3.08
2022-11-22T10:06:50.719Z,3.70
2022-11-22T10:12:39.504Z,4.42
2022-11-22T10:15:34.450Z,3.37
2022-11-22T10:18:29.638Z,4.03
2022-11-22T10:21:22.272Z,3.35
2022-11-22T10:24:20.045Z,4.78
2022-11-22T10:27:15.984Z,1.67
2022-11-22T10:30:13.710Z,3.85
2022-11-22T10:33:12.683Z,3.08
2022-11-22T10:36:29.426Z,2.62
2022-11-22T10:39:34.411Z,3.40
2022-11-22T10:42:31.678Z,5.90
2022-11-22T10:45:27.983Z,3.33
2022-11-22T10:48:25.021Z,3.50
2022-11-22T10:51:21.583Z,2.83
2022-11-22T10:54:17.790Z,2.75
2022-11-22T10:59:57.584Z,2.98
2022-11-22T11:11:54.514Z,4.83
2022-11-22T11:14:50.923Z,2.22
2022-11-22T11:17:44.369Z,2.20
2022-11-22T11:23:15.565Z,3.65
2022-11-22T11:26:24.291Z,1.75
2022-11-22T11:29:38.387Z,4.70
2022-11-22T11:32:29.777Z,2.52
2022-11-22T11:38:00.558Z,5.47
2022-11-22T11:43:31.699Z,2.67
2022-11-22T11:46:24.765Z,1.85
2022-11-22T11:49:19.014Z,3.47
2022-11-22T11:52:13.846Z,3.00
2022-11-22T11:57:46.337Z,2.85
2022-11-22T12:00:41.522Z,4.97
2022-11-22T12:03:33.485Z,3.67
2022-11-22T12:06:30.724Z,4.92
2022-11-22T12:09:32.328Z,3.17
2022-11-22T12:12:37.962Z,4.35
2022-11-22T12:18:23.098Z,5.30
2022-11-22T12:24:34.869Z,6.00
2022-11-22T12:27:03.863Z,4.03
2022-11-22T12:29:56.272Z,4.42
2022-11-22T12:32:50.829Z,3.72
2022-11-22T12:38:30.405Z,5.45
2022-11-22T12:44:06.573Z,5.35
2022-11-22T12:47:02.045Z,7.10
2022-11-22T12:49:56.722Z,6.67
2022-11-22T12:52:51.446Z,6.28
2022-11-22T12:55:48.003Z,7.12
2022-11-22T12:58:42.801Z,6.35
2022-11-22T13:01:38.499Z,3.87
2022-11-22T13:04:33.955Z,6.05
2022-11-22T13:07:29.742Z,3.65
2022-11-22T13:10:28.447Z,4.33
2022-11-22T13:13:24.191Z,6.50
2022-11-22T13:16:16.993Z,4.00
2022-11-22T13:19:12.298Z,5.83
2022-11-22T13:22:14.227Z,5.22
2022-11-22T13:25:14.612Z,4.40
2022-11-22T13:31:09.665Z,2.80
2022-11-22T13:34:05.219Z,3.58
2022-11-22T13:37:01.733Z,4.00
2022-11-22T13:39:51.533Z,3.30
2022-11-22T13:42:43.869Z,3.83
2022-11-22T13:45:51.677Z,4.05
2022-11-22T13:49:15.038Z,4.00
2022-11-22T13:52:09.726Z,3.27
2022-11-22T13:55:05.281Z,3.70
2022-11-22T13:57:57.035Z,3.52
2022-11-22T14:00:49.715Z,2.87
2022-11-22T14:03:43.530Z,3.58
2022-11-22T14:06:35.844Z,4.78
2022-11-22T14:13:09.978Z,3.20
2022-11-22T14:16:08.734Z,1.92
2022-11-22T14:19:07.615Z,3.17
2022-11-22T14:22:08.177Z,2.30
2022-11-22T14:25:19.332Z,2.33
2022-11-22T14:28:15.456Z,1.05
2022-11-22T14:31:18.962Z,4.25
2022-11-22T14:34:23.672Z,2.00
2022-11-22T14:40:37.325Z,2.35
2022-11-22T14:43:36.517Z,4.78
2022-11-22T14:46:52.285Z,5.65
2022-11-22T14:49:34.555Z,3.67
2022-11-22T14:52:29.797Z,2.55
2022-11-22T14:55:24.774Z,3.08
2022-11-22T14:58:21.972Z,6.17
2022-11-22T15:01:45.891Z,4.83
2022-11-22T15:09:21.291Z,3.35
2022-11-22T15:09:24.546Z,5.53
2022-11-22T15:11:07.223Z,9.63
2022-11-22T15:14:26.581Z,9.35
2022-11-22T15:58:41.928Z,4.62
2022-11-22T16:01:35.296Z,4.72
2022-11-22T16:04:30.578Z,6.65
2022-11-22T16:07:32.801Z,6.78
2022-11-22T16:10:31.122Z,7.22
2022-11-22T16:13:30.846Z,5.87
2022-11-22T16:16:26.458Z,6.00
2022-11-22T16:19:23.668Z,6.25
2022-11-22T16:22:33.680Z,5.92
2022-11-22T16:25:31.195Z,5.10
2022-11-22T16:28:33.403Z,5.12
2022-11-22T16:31:27.542Z,6.12
2022-11-22T16:34:19.593Z,6.17
2022-11-22T16:37:31.823Z,4.50
2022-11-22T16:40:22.457Z,5.72
2022-11-22T16:43:19.777Z,4.15
2022-11-22T16:46:14.286Z,4.22
2022-11-22T16:49:13.102Z,5.20
2022-11-22T16:52:05.223Z,4.85
2022-11-22T16:54:56.758Z,4.50
2022-11-22T16:57:49.507Z,3.05
2022-11-22T17:00:41.100Z,5.92
2022-11-22T17:03:36.526Z,5.75
2022-11-22T17:06:30.270Z,8.43
2022-11-22T17:09:22.639Z,7.42
2022-11-22T17:12:17.790Z,8.53
2022-11-22T17:15:15.254Z,14.55
2022-11-22T17:18:07.580Z,10.28
2022-11-22T17:21:02.263Z,6.50
2022-11-22T17:24:00.109Z,5.70
2022-11-22T17:26:51.911Z,6.47
2022-11-22T17:29:51.686Z,4.75
2022-11-22T17:32:40.603Z,6.87
2022-11-22T17:35:36.904Z,4.78
2022-11-22T17:38:27.752Z,6.90
2022-11-22T17:41:19.194Z,6.00
2022-11-22T17:44:18.989Z,6.67
2022-11-22T17:47:09.928Z,6.03
2022-11-22T17:50:01.848Z,5.17
2022-11-22T17:52:55.432Z,5.15
2022-11-22T17:56:09.959Z,6.45
2022-11-22T17:58:49.596Z,5.12
2022-11-22T18:01:41.551Z,6.17
2022-11-22T18:04:33.614Z,7.72
2022-11-22T18:07:27.097Z,5.90
2022-11-22T18:10:19.018Z,8.18
2022-11-22T18:13:21.264Z,6.00
2022-11-22T18:16:06.843Z,6.67
2022-11-22T18:18:59.340Z,9.65
2022-11-22T18:21:51.105Z,8.83
2022-11-22T18:24:43.367Z,9.80
2022-11-22T18:27:41.930Z,10.10
2022-11-22T18:30:30.383Z,9.20
2022-11-22T18:33:22.400Z,10.53
2022-11-22T19:23:00.949Z,7.47
2022-11-22T19:25:55.436Z,10.93
2022-11-22T19:28:48.193Z,8.50
2022-11-22T19:31:39.640Z,8.13
2022-11-22T19:34:32.238Z,9.30
2022-11-22T19:37:23.615Z,10.45
2022-11-22T19:40:15.905Z,9.40
2022-11-22T19:43:10.106Z,10.28
2022-11-22T19:46:04.171Z,10.53
2022-11-22T19:49:03.156Z,9.60
2022-11-22T19:51:54.583Z,7.85
2022-11-22T19:54:46.804Z,10.30
2022-11-22T19:57:38.449Z,7.47
2022-11-22T20:00:32.444Z,9.25
2022-11-22T20:03:24.073Z,8.90
2022-11-22T20:06:16.547Z,10.68
2022-11-22T20:09:10.832Z,9.13
2022-11-22T20:12:02.461Z,10.78
2022-11-22T20:14:54.073Z,10.32
2022-11-22T20:20:26.312Z,9.00
2022-11-22T20:23:48.010Z,9.38
2022-11-22T20:26:53.178Z,11.65
2022-11-22T20:29:42.256Z,7.92
2022-11-22T20:32:34.101Z,9.60
2022-11-22T20:35:29.010Z,8.83
2022-11-22T20:38:20.641Z,8.65
2022-11-22T20:41:14.349Z,9.05
2022-11-22T20:44:06.084Z,7.30
2022-11-22T20:46:57.520Z,8.45
2022-11-22T20:49:49.450Z,8.83
2022-11-22T20:52:40.786Z,9.85
2022-11-22T20:55:32.274Z,8.25
2022-11-22T20:58:26.055Z,9.80
2022-11-22T21:01:20.797Z,12.05
2022-11-22T21:04:12.172Z,10.95
2022-11-22T21:07:04.298Z,7.35
2022-11-22T21:09:55.635Z,10.58
2022-11-22T21:12:47.498Z,9.18
2022-11-22T21:15:39.210Z,9.33
2022-11-22T21:18:33.919Z,9.63
2022-11-22T21:21:26.060Z,8.58
2022-11-22T21:24:17.600Z,9.38
2022-11-22T21:27:09.606Z,11.55
2022-11-22T21:30:01.139Z,10.00
2022-11-22T21:32:53.465Z,13.80
2022-11-22T21:35:45.865Z,9.20
2022-11-22T21:38:39.482Z,13.70
2022-11-22T21:41:44.304Z,9.88
2022-11-22T21:44:29.623Z,10.72
2022-11-22T21:47:21.801Z,10.75
2022-11-22T21:50:13.651Z,11.18
2022-11-22T21:53:05.111Z,10.78
2022-11-22T21:55:57.922Z,10.93
2022-11-22T21:58:49.586Z,12.37
2022-11-22T22:01:40.918Z,10.80
2022-11-22T22:04:32.528Z,9.30
2022-11-22T22:07:50.634Z,10.55
2022-11-22T22:10:17.805Z,9.00
2022-11-22T22:13:09.529Z,9.78
2022-11-22T22:16:03.977Z,8.70
2022-11-22T22:18:55.772Z,10.20
2022-11-22T22:21:48.322Z,10.45
2022-11-22T22:24:39.977Z,9.63
2022-11-22T22:27:33.139Z,9.95
2022-11-22T22:30:25.275Z,11.53
2022-11-22T22:33:17.145Z,10.88
2022-11-22T22:36:11.525Z,9.70
2022-11-22T22:39:03.461Z,8.55
2022-11-22T22:41:54.975Z,9.30
2022-11-22T22:44:46.813Z,9.15
2022-11-22T22:47:38.688Z,8.85
2022-11-22T22:50:30.333Z,9.03
2022-11-22T22:53:26.341Z,8.48
2022-11-22T22:56:21.045Z,9.70
2022-11-22T22:59:16.939Z,7.67
2022-11-22T23:02:08.816Z,8.78
2022-11-22T23:05:00.499Z,7.87
2022-11-22T23:10:33.902Z,8.68
2022-11-22T23:13:26.298Z,7.55
2022-11-22T23:16:18.174Z,8.48
2022-11-22T23:19:10.840Z,6.70
2022-11-22T23:22:02.834Z,7.72
2022-11-22T23:24:54.893Z,7.42
2022-11-22T23:27:46.447Z,9.78
2022-11-22T23:30:37.994Z,9.30
2022-11-22T23:33:30.700Z,8.85
2022-11-22T23:36:25.497Z,9.30
2022-11-22T23:39:17.152Z,8.40
2022-11-22T23:42:08.911Z,8.13
2022-11-22T23:45:00.674Z,7.92
2022-11-22T23:47:54.615Z,8.95
2022-11-22T23:50:45.930Z,8.10
2022-11-22T23:53:38.316Z,8.00
2022-11-22T23:56:31.610Z,8.25
2022-11-22T23:59:23.176Z,8.57
